createdAt,value
2019-03-03T00:00:22.344Z,44.40
2019-03-03T00:02:50.964Z,41.73
2019-03-03T00:05:19.496Z,42.97
2019-03-03T00:07:47.999Z,30.67
2019-03-03T00:10:16.502Z,26.03
2019-03-03T00:12:45.005Z,23.80
2019-03-03T00:15:13.588Z,23.37
2019-03-03T00:17:42.063Z,22.63
2019-03-03T00:20:16.600Z,24.07
2019-03-03T00:22:45.136Z,29.60
2019-03-03T00:25:15.691Z,57.27
2019-03-03T00:27:44.265Z,29.00
2019-03-03T00:30:21.655Z,24.27
2019-03-03T00:32:50.157Z,25.30
2019-03-03T00:35:18.697Z,21.97
2019-03-03T00:37:57.667Z,22.90
2019-03-03T00:40:44.176Z,24.37
2019-03-03T00:43:20.344Z,23.33
2019-03-03T00:46:06.739Z,22.67
2019-03-03T00:48:53.175Z,23.43
2019-03-03T00:51:23.286Z,23.90
2019-03-03T00:54:09.474Z,25.23
2019-03-03T00:56:39.555Z,26.20
2019-03-03T00:59:12.620Z,24.30
2019-03-03T01:01:54.627Z,24.00
2019-03-03T01:04:41.332Z,23.80
2019-03-03T01:07:14.417Z,25.47
2019-03-03T01:09:50.356Z,24.60
2019-03-03T01:12:26.475Z,25.60
2019-03-03T01:14:59.308Z,27.40
2019-03-03T01:17:35.381Z,25.53
2019-03-03T01:20:06.403Z,27.37
2019-03-03T01:22:45.647Z,24.27
2019-03-03T01:25:14.207Z,24.00
2019-03-03T01:27:42.718Z,23.83
2019-03-03T01:30:14.144Z,24.37
2019-03-03T01:32:42.654Z,24.13
2019-03-03T01:35:11.362Z,25.00
2019-03-03T01:37:39.902Z,24.43
2019-03-03T01:40:10.107Z,24.13
2019-03-03T01:42:38.621Z,23.10
2019-03-03T01:45:12.138Z,29.47
2019-03-03T01:47:40.639Z,24.37
2019-03-03T01:50:11.140Z,27.60
2019-03-03T01:52:39.782Z,28.87
2019-03-03T01:55:10.844Z,24.27
2019-03-03T01:57:39.747Z,22.13
2019-03-03T02:00:23.372Z,23.67
2019-03-03T02:02:51.931Z,24.30
2019-03-03T02:05:20.474Z,25.33
2019-03-03T02:07:48.976Z,23.80
2019-03-03T02:10:17.574Z,22.73
2019-03-03T02:12:46.118Z,23.13
2019-03-03T02:15:14.618Z,23.37
2019-03-03T02:17:43.119Z,22.73
2019-03-03T02:20:12.127Z,22.53
2019-03-03T02:22:40.633Z,23.77
2019-03-03T02:25:11.171Z,21.97
2019-03-03T02:27:39.668Z,22.33
2019-03-03T02:30:17.380Z,22.37
2019-03-03T02:32:45.898Z,22.37
2019-03-03T02:35:15.585Z,24.50
2019-03-03T02:37:44.129Z,26.27
2019-03-03T02:40:17.636Z,27.03
2019-03-03T02:42:46.136Z,28.43
2019-03-03T02:45:15.757Z,28.63
2019-03-03T02:47:44.262Z,28.13
2019-03-03T02:50:14.315Z,29.17
2019-03-03T02:52:42.815Z,29.03
2019-03-03T02:55:15.294Z,27.63
2019-03-03T02:57:43.839Z,27.50
2019-03-03T03:00:15.700Z,27.70
2019-03-03T03:02:48.554Z,27.63
2019-03-03T03:05:20.879Z,27.30
2019-03-03T03:08:09.652Z,27.40
2019-03-03T03:10:42.268Z,28.07
2019-03-03T03:13:18.265Z,27.83
2019-03-03T03:15:54.056Z,26.97
2019-03-03T03:18:29.941Z,28.13
2019-03-03T03:21:08.604Z,28.90
2019-03-03T03:23:57.179Z,32.30
2019-03-03T03:26:33.007Z,34.33
2019-03-03T03:29:09.035Z,33.40
2019-03-03T03:31:51.112Z,34.50
2019-03-03T03:34:23.924Z,35.97
2019-03-03T03:36:57.020Z,37.20
2019-03-03T03:39:27.109Z,37.13
2019-03-03T03:41:57.202Z,39.03
2019-03-03T03:44:43.723Z,43.90
2019-03-03T03:47:13.840Z,65.60
2019-03-03T03:49:52.568Z,52.57
2019-03-03T03:52:22.699Z,46.50
2019-03-03T03:55:04.810Z,38.63
2019-03-03T03:57:34.899Z,37.33
2019-03-03T04:00:20.125Z,40.43
2019-03-03T04:02:52.708Z,41.53
2019-03-03T04:05:38.157Z,40.57
2019-03-03T04:08:08.272Z,37.13
2019-03-03T04:10:38.343Z,35.60
2019-03-03T04:13:08.423Z,35.20
2019-03-03T04:15:47.357Z,34.33
2019-03-03T04:18:17.427Z,34.53
2019-03-03T04:20:47.512Z,34.50
2019-03-03T04:23:17.590Z,36.77
2019-03-03T04:26:06.125Z,39.20
2019-03-03T04:28:54.587Z,36.70
2019-03-03T04:31:30.939Z,35.00
2019-03-03T04:34:01.059Z,32.23
2019-03-03T04:36:31.159Z,33.13
2019-03-03T04:39:01.231Z,33.53
2019-03-03T04:41:47.398Z,33.20
2019-03-03T04:44:17.485Z,34.13
2019-03-03T04:46:47.551Z,32.73
2019-03-03T04:49:32.785Z,33.87
2019-03-03T04:52:14.675Z,32.83
2019-03-03T04:54:44.765Z,34.40
2019-03-03T04:57:17.879Z,35.50
2019-03-03T04:59:48.013Z,40.50
2019-03-03T05:02:18.089Z,45.83
2019-03-03T05:04:54.015Z,49.90
2019-03-03T05:07:27.081Z,43.70
2019-03-03T05:10:00.368Z,39.27
2019-03-03T05:12:46.760Z,40.17
2019-03-03T05:15:16.878Z,49.67
2019-03-03T05:18:03.521Z,58.53
2019-03-03T05:20:51.322Z,49.63
2019-03-03T05:23:19.869Z,44.97
2019-03-03T05:25:48.383Z,48.17
2019-03-03T05:28:16.890Z,49.70
2019-03-03T05:30:45.406Z,47.63
2019-03-03T05:33:13.907Z,45.27
2019-03-03T05:35:42.461Z,55.50
2019-03-03T05:38:10.967Z,71.97
2019-03-03T05:40:39.472Z,39.87
2019-03-03T05:43:08.002Z,52.13
2019-03-03T05:45:36.516Z,48.33
2019-03-03T05:48:05.080Z,39.83
2019-03-03T05:50:33.583Z,84.23
2019-03-03T05:53:02.091Z,98.67
2019-03-03T05:55:30.636Z,109.30
2019-03-03T05:57:59.447Z,59.43
2019-03-03T06:00:27.954Z,79.47
2019-03-03T06:02:56.499Z,69.00
2019-03-03T06:05:25.021Z,64.53
2019-03-03T06:07:53.525Z,67.40
2019-03-03T06:10:22.056Z,49.07
2019-03-03T06:12:50.563Z,40.43
2019-03-03T06:15:19.109Z,40.83
2019-03-03T06:17:47.601Z,40.77
2019-03-03T06:20:16.108Z,48.13
2019-03-03T06:22:44.652Z,51.67
2019-03-03T06:25:14.465Z,43.27
2019-03-03T06:27:42.971Z,43.47
2019-03-03T06:30:17.837Z,64.57
2019-03-03T06:32:46.345Z,60.80
2019-03-03T06:35:14.900Z,49.30
2019-03-03T06:37:43.409Z,38.63
2019-03-03T06:40:12.014Z,36.07
2019-03-03T06:42:40.515Z,31.90
2019-03-03T06:45:13.603Z,33.97
2019-03-03T06:47:42.199Z,35.70
2019-03-03T06:50:11.958Z,33.20
2019-03-03T06:52:39.527Z,31.23
2019-03-03T06:55:08.349Z,34.53
2019-03-03T06:57:36.842Z,35.63
2019-03-03T07:00:10.142Z,37.00
2019-03-03T07:02:38.871Z,43.53
2019-03-03T07:05:08.774Z,41.60
2019-03-03T07:07:37.310Z,40.33
2019-03-03T07:10:08.940Z,40.00
2019-03-03T07:12:37.438Z,44.93
2019-03-03T07:15:09.324Z,42.43
2019-03-03T07:17:37.831Z,52.13
2019-03-03T07:31:07.704Z,51.43
2019-03-03T07:33:36.211Z,40.70
2019-03-03T07:44:03.253Z,36.93
2019-03-03T07:46:31.756Z,35.10
2019-03-03T07:49:00.313Z,35.23
2019-03-03T07:51:28.805Z,35.77
2019-03-03T07:53:57.331Z,40.90
2019-03-03T07:56:25.844Z,43.10
2019-03-03T07:58:54.359Z,31.07
2019-03-03T08:01:22.909Z,115.80
2019-03-03T08:03:51.421Z,34.93
2019-03-03T08:06:19.933Z,44.73
2019-03-03T08:08:48.475Z,32.30
2019-03-03T08:11:17.015Z,29.17
2019-03-03T08:13:45.607Z,30.67
2019-03-03T08:19:46.205Z,29.03
2019-03-03T08:22:14.712Z,37.70
2019-03-03T08:24:43.211Z,34.83
2019-03-03T08:27:11.766Z,31.47
2019-03-03T08:29:40.273Z,31.67
2019-03-03T08:32:08.783Z,31.77
2019-03-03T08:34:37.288Z,32.23
2019-03-03T08:37:05.801Z,31.50
2019-03-03T08:39:34.345Z,31.07
2019-03-03T08:42:04.425Z,31.70
2019-03-03T08:44:34.514Z,32.60
2019-03-03T08:47:04.637Z,34.37
2019-03-03T08:49:34.716Z,48.10
2019-03-03T08:52:04.788Z,36.67
2019-03-03T08:54:37.848Z,33.67
2019-03-03T08:57:10.616Z,33.43
2019-03-03T08:59:43.773Z,35.00
2019-03-03T09:02:17.005Z,33.07
2019-03-03T09:05:02.468Z,33.33
2019-03-03T09:07:32.554Z,33.27
2019-03-03T09:10:05.499Z,34.80
2019-03-03T09:12:38.525Z,44.87
2019-03-03T09:15:20.371Z,36.03
2019-03-03T09:18:06.873Z,33.23
2019-03-03T09:20:36.996Z,41.60
2019-03-03T09:23:07.068Z,38.17
2019-03-03T09:25:46.151Z,37.57
2019-03-03T09:28:25.474Z,33.70
2019-03-03T09:30:58.701Z,37.20
2019-03-03T09:33:31.575Z,34.50
2019-03-03T09:36:07.703Z,36.47
2019-03-03T09:38:53.979Z,35.00
2019-03-03T09:41:27.095Z,84.90
2019-03-03T09:44:00.294Z,40.73
2019-03-03T09:46:39.130Z,106.07
2019-03-03T09:49:18.354Z,36.93
2019-03-03T09:51:54.089Z,41.40
2019-03-03T09:54:26.924Z,38.10
2019-03-03T09:56:57.044Z,33.93
2019-03-03T09:59:45.434Z,39.43
2019-03-03T10:02:21.520Z,37.23
2019-03-03T10:05:07.928Z,32.23
2019-03-03T10:07:41.112Z,35.03
2019-03-03T10:10:28.852Z,36.97
2019-03-03T10:13:01.959Z,39.23
2019-03-03T10:15:39.790Z,49.73
2019-03-03T10:18:15.758Z,35.13
2019-03-03T10:21:03.229Z,34.73
2019-03-03T10:23:33.461Z,37.30
2019-03-03T10:26:03.580Z,37.40
2019-03-03T10:28:50.073Z,34.50
2019-03-03T10:31:31.805Z,33.50
2019-03-03T10:34:01.936Z,33.20
2019-03-03T10:36:32.060Z,30.30
2019-03-03T10:39:07.897Z,33.93
2019-03-03T10:41:40.763Z,43.83
2019-03-03T10:44:10.843Z,42.23
2019-03-03T10:46:43.894Z,43.30
2019-03-03T10:49:22.982Z,68.00
2019-03-03T10:51:53.069Z,49.97
2019-03-03T10:54:39.639Z,44.70
2019-03-03T10:57:09.724Z,30.73
2019-03-03T10:59:55.347Z,36.40
2019-03-03T11:02:31.042Z,34.27
2019-03-03T11:05:01.156Z,37.90
2019-03-03T11:07:47.492Z,31.47
2019-03-03T11:10:17.624Z,23.93
2019-03-03T11:12:50.522Z,32.33
2019-03-03T11:15:35.969Z,29.67
2019-03-03T11:18:06.048Z,30.00
2019-03-03T11:20:54.227Z,30.10
2019-03-03T11:23:24.311Z,27.87
2019-03-03T11:25:54.402Z,27.30
2019-03-03T11:28:24.492Z,23.80
2019-03-03T11:30:54.573Z,26.13
2019-03-03T11:33:36.934Z,25.97
2019-03-03T11:36:09.457Z,36.40
2019-03-03T11:38:45.325Z,30.77
2019-03-03T11:41:15.408Z,29.47
2019-03-03T11:43:57.501Z,27.33
2019-03-03T11:46:36.836Z,26.80
2019-03-03T11:49:07.034Z,28.97
2019-03-03T11:51:53.576Z,33.47
2019-03-03T11:54:23.710Z,28.57
2019-03-03T11:56:53.795Z,36.03
2019-03-03T11:59:31.572Z,30.63
2019-03-03T12:02:18.267Z,28.53
2019-03-03T12:04:51.291Z,34.07
2019-03-03T12:07:27.378Z,29.27
2019-03-03T12:10:13.573Z,29.37
2019-03-03T12:12:59.772Z,29.57
2019-03-03T12:15:29.852Z,44.67
2019-03-03T12:17:59.934Z,28.60
2019-03-03T12:20:35.739Z,31.23
2019-03-03T12:23:17.906Z,28.73
2019-03-03T12:25:47.993Z,27.30
2019-03-03T12:28:20.873Z,36.10
2019-03-03T12:30:53.860Z,30.13
2019-03-03T12:33:23.942Z,25.73
2019-03-03T12:36:11.781Z,28.00
2019-03-03T12:38:41.856Z,24.47
2019-03-03T12:41:27.979Z,26.20
2019-03-03T12:44:03.804Z,39.70
2019-03-03T12:46:42.672Z,40.53
2019-03-03T12:49:12.753Z,28.70
2019-03-03T12:51:42.828Z,28.50
2019-03-03T12:54:15.651Z,27.57
2019-03-03T12:56:45.741Z,29.53
2019-03-03T12:59:33.511Z,28.93
2019-03-03T13:02:03.588Z,31.43
2019-03-03T13:04:39.653Z,29.63
2019-03-03T13:07:15.502Z,30.00
2019-03-03T13:09:45.617Z,32.17
2019-03-03T13:12:15.693Z,31.90
2019-03-03T13:14:45.786Z,34.13
2019-03-03T13:17:21.337Z,37.17
2019-03-03T13:20:03.449Z,35.70
2019-03-03T13:22:50.046Z,33.50
2019-03-03T13:25:38.535Z,37.73
2019-03-03T13:28:17.882Z,31.40
2019-03-03T13:30:47.958Z,26.67
2019-03-03T13:33:31.595Z,35.97
2019-03-03T13:36:01.673Z,35.33
2019-03-03T13:38:48.098Z,43.13
2019-03-03T13:41:27.401Z,46.07
2019-03-03T13:43:55.919Z,32.77
2019-03-03T13:46:24.442Z,32.67
2019-03-03T13:48:52.948Z,31.93
2019-03-03T13:51:21.495Z,42.33
2019-03-03T13:53:49.998Z,37.90
2019-03-03T13:56:18.509Z,32.93
2019-03-03T13:58:47.063Z,26.37
2019-03-03T14:01:15.575Z,24.50
2019-03-03T14:03:44.090Z,26.43
2019-03-03T14:06:12.603Z,35.40
2019-03-03T14:08:41.309Z,29.87
2019-03-03T14:11:09.850Z,32.47
2019-03-03T14:13:38.361Z,33.03
2019-03-03T14:16:06.866Z,34.73
2019-03-03T14:18:35.425Z,43.63
2019-03-03T14:21:03.933Z,42.30
2019-03-03T14:23:32.451Z,44.50
2019-03-03T14:26:00.969Z,35.77
2019-03-03T14:28:29.487Z,70.67
2019-03-03T14:30:58.031Z,66.93
2019-03-03T14:33:26.551Z,66.97
2019-03-03T14:35:55.061Z,48.53
2019-03-03T14:38:23.605Z,45.53
2019-03-03T14:40:52.134Z,37.70
2019-03-03T14:43:20.633Z,40.60
2019-03-03T14:45:49.150Z,40.73
2019-03-03T14:48:17.702Z,45.13
2019-03-03T14:50:46.278Z,40.57
2019-03-03T14:53:14.785Z,54.10
2019-03-03T14:55:43.290Z,45.27
2019-03-03T14:58:11.811Z,45.90
2019-03-03T15:00:40.330Z,50.13
2019-03-03T15:03:09.265Z,40.67
2019-03-03T15:05:37.778Z,39.93
2019-03-03T15:08:06.938Z,42.60
2019-03-03T15:10:35.437Z,42.70
2019-03-03T15:13:03.946Z,36.70
2019-03-03T15:15:36.752Z,36.00
2019-03-03T15:18:05.287Z,33.10
2019-03-03T15:20:33.798Z,41.10
2019-03-03T15:23:02.326Z,29.93
2019-03-03T15:25:30.828Z,40.00
2019-03-03T15:27:59.330Z,46.63
2019-03-03T15:30:27.867Z,33.23
2019-03-03T15:32:56.374Z,35.10
2019-03-03T15:35:24.876Z,40.93
2019-03-03T15:37:53.436Z,37.60
2019-03-03T15:40:27.098Z,40.33
2019-03-03T15:42:55.606Z,42.60
2019-03-03T15:45:27.251Z,61.60
2019-03-03T15:47:55.764Z,70.27
2019-03-03T15:50:24.310Z,46.17
2019-03-03T15:52:52.835Z,45.57
2019-03-03T15:55:29.623Z,37.57
2019-03-03T15:58:00.066Z,40.43
2019-03-03T16:00:40.102Z,39.73
2019-03-03T16:03:08.623Z,35.90
2019-03-03T16:05:37.136Z,37.97
2019-03-03T16:08:05.651Z,60.00
2019-03-03T16:10:34.174Z,55.37
2019-03-03T16:13:03.895Z,72.77
2019-03-03T16:15:32.575Z,69.47
2019-03-03T16:18:01.087Z,59.67
2019-03-03T16:20:29.629Z,60.50
2019-03-03T16:22:58.145Z,60.57
2019-03-03T16:25:26.640Z,45.27
2019-03-03T16:27:55.149Z,48.17
2019-03-03T16:30:24.705Z,65.83
2019-03-03T16:32:53.224Z,49.70
2019-03-03T16:35:21.744Z,38.87
2019-03-03T16:37:50.266Z,28.07
2019-03-03T16:40:23.855Z,35.80
2019-03-03T16:42:52.347Z,34.30
2019-03-03T16:45:20.857Z,26.50
2019-03-03T16:47:49.367Z,25.77
2019-03-03T16:50:21.634Z,24.17
2019-03-03T16:52:50.122Z,32.50
2019-03-03T16:55:19.422Z,45.23
2019-03-03T16:57:47.970Z,58.50
2019-03-03T17:00:21.515Z,28.50
2019-03-03T17:02:50.057Z,26.03
2019-03-03T17:05:21.136Z,21.07
2019-03-03T17:07:49.638Z,15.83
2019-03-03T17:10:19.088Z,16.27
2019-03-03T17:12:47.582Z,14.70
2019-03-03T17:15:21.049Z,13.80
2019-03-03T17:17:49.574Z,15.50
2019-03-03T17:20:18.085Z,14.50
2019-03-03T17:22:46.632Z,13.23
2019-03-03T17:25:20.694Z,14.53
2019-03-03T17:27:49.198Z,15.07
2019-03-03T17:30:19.512Z,15.57
2019-03-03T17:32:48.020Z,15.80
2019-03-03T17:35:16.579Z,18.03
2019-03-03T17:37:45.134Z,18.17
2019-03-03T17:40:22.422Z,15.80
2019-03-03T17:42:50.919Z,16.23
2019-03-03T17:45:22.929Z,16.60
2019-03-03T17:47:51.582Z,22.20
2019-03-03T17:50:22.098Z,16.00
2019-03-03T17:52:50.604Z,15.07
2019-03-03T17:55:19.146Z,13.30
2019-03-03T17:57:47.649Z,12.47
2019-03-03T18:00:18.713Z,14.07
2019-03-03T18:02:47.241Z,13.57
2019-03-03T18:05:16.858Z,12.97
2019-03-03T18:07:45.528Z,12.33
2019-03-03T18:10:14.111Z,13.23
2019-03-03T18:12:42.630Z,12.30
2019-03-03T18:15:14.846Z,13.30
2019-03-03T18:17:43.340Z,15.00
2019-03-03T18:20:20.075Z,15.67
2019-03-03T18:22:48.583Z,14.60
2019-03-03T18:25:21.935Z,13.40
2019-03-03T18:27:50.489Z,11.07
2019-03-03T18:30:21.458Z,11.47
2019-03-03T18:32:49.962Z,10.80
2019-03-03T18:35:18.556Z,13.13
2019-03-03T18:37:47.065Z,19.23
2019-03-03T18:40:22.831Z,26.03
2019-03-03T18:42:51.330Z,25.23
2019-03-03T18:45:20.693Z,16.90
2019-03-03T18:47:49.322Z,16.57
2019-03-03T18:50:24.973Z,19.60
2019-03-03T18:52:53.487Z,20.13
2019-03-03T18:55:22.000Z,13.37
2019-03-03T18:57:50.502Z,11.47
2019-03-03T19:00:22.650Z,11.70
2019-03-03T19:02:51.357Z,11.90
2019-03-03T19:05:19.849Z,13.97
2019-03-03T19:07:48.522Z,14.80
2019-03-03T19:10:19.231Z,12.27
2019-03-03T19:12:47.791Z,17.17
2019-03-03T19:15:18.310Z,16.80
2019-03-03T19:17:46.817Z,20.27
2019-03-03T19:20:17.933Z,21.03
2019-03-03T19:22:46.443Z,30.70
2019-03-03T19:25:15.246Z,31.67
2019-03-03T19:27:43.763Z,28.67
2019-03-03T19:30:23.844Z,40.47
2019-03-03T19:33:07.329Z,65.93
2019-03-03T19:35:35.839Z,45.53
2019-03-03T19:38:05.141Z,20.60
2019-03-03T19:40:35.258Z,22.17
2019-03-03T19:43:03.761Z,24.20
2019-03-03T19:45:43.906Z,28.73
2019-03-03T19:48:12.400Z,18.43
2019-03-03T19:50:41.007Z,18.23
2019-03-03T19:53:09.514Z,21.13
2019-03-03T19:55:38.013Z,22.73
2019-03-03T19:58:06.532Z,25.10
2019-03-03T20:00:42.204Z,25.87
2019-03-03T20:03:10.697Z,24.63
2019-03-03T20:05:39.195Z,22.60
2019-03-03T20:08:07.753Z,23.80
2019-03-03T20:10:36.358Z,20.40
2019-03-03T20:13:04.867Z,20.83
2019-03-03T20:15:33.444Z,24.93
2019-03-03T20:18:01.982Z,21.83
2019-03-03T20:20:30.506Z,25.97
2019-03-03T20:22:58.972Z,26.07
2019-03-03T20:25:27.476Z,30.93
2019-03-03T20:27:56.010Z,26.20
2019-03-03T20:30:25.523Z,26.17
2019-03-03T20:32:54.020Z,24.27
2019-03-03T20:35:22.551Z,25.60
2019-03-03T20:37:51.056Z,27.17
2019-03-03T20:40:26.989Z,27.67
2019-03-03T20:42:55.792Z,36.07
2019-03-03T20:45:31.206Z,31.63
2019-03-03T20:47:59.708Z,31.10
2019-03-03T20:50:28.209Z,28.63
2019-03-03T20:52:56.714Z,18.87
2019-03-03T20:55:27.668Z,15.67
2019-03-03T20:57:56.215Z,21.30
2019-03-03T21:00:31.847Z,32.80
2019-03-03T21:03:00.401Z,31.03
2019-03-03T21:05:28.888Z,36.93
2019-03-03T21:07:57.383Z,34.83
2019-03-03T21:10:32.058Z,36.43
2019-03-03T21:13:00.575Z,36.87
2019-03-03T21:15:32.033Z,27.10
2019-03-03T21:18:00.529Z,34.17
2019-03-03T21:20:29.026Z,37.73
2019-03-03T21:22:57.563Z,43.40
2019-03-03T21:25:26.063Z,38.63
2019-03-03T21:27:54.559Z,34.50
2019-03-03T21:30:24.885Z,37.13
2019-03-03T21:32:53.371Z,44.73
2019-03-03T21:35:21.947Z,37.97
2019-03-03T21:37:50.453Z,33.73
2019-03-03T21:40:23.385Z,25.80
2019-03-03T21:42:51.902Z,27.13
2019-03-03T21:45:24.643Z,32.57
2019-03-03T21:47:53.209Z,32.60
2019-03-03T21:50:23.759Z,47.73
2019-03-03T21:52:52.261Z,47.00
2019-03-03T21:55:20.761Z,34.03
2019-03-03T21:57:49.262Z,32.27
2019-03-03T22:00:23.977Z,31.87
2019-03-03T22:02:52.476Z,31.57
2019-03-03T22:05:20.990Z,34.10
2019-03-03T22:07:49.498Z,32.80
2019-03-03T22:10:17.997Z,33.93
2019-03-03T22:12:46.537Z,28.63
2019-03-03T22:15:15.144Z,28.57
2019-03-03T22:17:43.643Z,30.63
2019-03-03T22:20:12.150Z,30.33
2019-03-03T22:22:40.648Z,27.50
2019-03-03T22:25:12.317Z,24.27
2019-03-03T22:27:40.824Z,22.93
2019-03-03T22:30:17.381Z,20.83
2019-03-03T22:32:45.886Z,21.63
2019-03-03T22:35:14.389Z,21.73
2019-03-03T22:37:42.908Z,22.07
2019-03-03T22:40:14.076Z,20.67
2019-03-03T22:42:42.607Z,20.27
2019-03-03T22:45:13.515Z,21.07
2019-03-03T22:47:42.009Z,23.57
2019-03-03T22:50:18.123Z,23.73
2019-03-03T22:52:46.628Z,23.03
2019-03-03T22:55:16.875Z,20.97
2019-03-03T22:57:45.378Z,20.63
2019-03-03T23:00:33.807Z,20.10
2019-03-03T23:03:02.312Z,20.10
2019-03-03T23:05:51.962Z,25.80
2019-03-03T23:08:29.221Z,37.43
2019-03-03T23:11:12.740Z,33.00
2019-03-03T23:13:56.079Z,39.17
2019-03-03T23:16:54.985Z,36.30
2019-03-03T23:19:35.890Z,33.30
2019-03-03T23:22:21.979Z,40.03
2019-03-03T23:25:12.885Z,37.57
2019-03-03T23:27:41.391Z,37.17
2019-03-03T23:30:09.894Z,43.33
2019-03-03T23:32:38.435Z,43.30
2019-03-03T23:35:07.338Z,42.10
2019-03-03T23:37:35.834Z,43.37
2019-03-03T23:40:05.943Z,40.90
2019-03-03T23:42:34.469Z,38.83
2019-03-03T23:45:03.007Z,35.10
2019-03-03T23:47:31.508Z,36.27
2019-03-03T23:50:00.007Z,38.67
2019-03-03T23:52:28.527Z,40.00
2019-03-03T23:54:57.032Z,39.50
2019-03-03T23:57:25.527Z,39.80
2019-03-03T23:59:54.048Z,41.87
